sensor_id;sensor_type;location;lat;lon;timestamp;temperature;humidity
3186;DHT22;1604;53.700;10.252;2023-11-21T00:02:02;7.60;99.90
3186;DHT22;1604;53.700;10.252;2023-11-21T00:05:05;7.60;99.90
3186;DHT22;1604;53.700;10.252;2023-11-21T00:08:10;7.60;99.90
3186;DHT22;1604;53.700;10.252;2023-11-21T00:11:12;7.60;99.90
3186;DHT22;1604;53.700;10.252;2023-11-21T00:14:14;7.60;99.90
3186;DHT22;1604;53.700;10.252;2023-11-21T00:17:16;7.50;99.90
3186;DHT22;1604;53.700;10.252;2023-11-21T00:20:18;7.40;99.90
3186;DHT22;1604;53.700;10.252;2023-11-21T00:23:21;7.40;99.90
3186;DHT22;1604;53.700;10.252;2023-11-21T00:26:23;7.40;99.90
3186;DHT22;1604;53.700;10.252;2023-11-21T00:29:25;7.30;99.90
3186;DHT22;1604;53.700;10.252;2023-11-21T00:32:27;7.30;99.90
3186;DHT22;1604;53.700;10.252;2023-11-21T00:35:29;7.20;99.90
3186;DHT22;1604;53.700;10.252;2023-11-21T00:38:32;7.20;99.90
3186;DHT22;1604;53.700;10.252;2023-11-21T00:41:34;7.20;99.90
3186;DHT22;1604;53.700;10.252;2023-11-21T00:44:38;7.20;99.90
3186;DHT22;1604;53.700;10.252;2023-11-21T00:47:40;7.20;99.90
3186;DHT22;1604;53.700;10.252;2023-11-21T00:50:42;7.10;99.90
3186;DHT22;1604;53.700;10.252;2023-11-21T00:53:46;7.10;99.90
3186;DHT22;1604;53.700;10.252;2023-11-21T00:56:48;7.10;99.90
3186;DHT22;1604;53.700;10.252;2023-11-21T00:59:50;7.00;99.90
3186;DHT22;1604;53.700;10.252;2023-11-21T01:02:52;7.00;99.90
3186;DHT22;1604;53.700;10.252;2023-11-21T01:05:54;6.90;99.90
3186;DHT22;1604;53.700;10.252;2023-11-21T01:08:57;6.90;99.90
3186;DHT22;1604;53.700;10.252;2023-11-21T01:11:59;6.90;99.90
3186;DHT22;1604;53.700;10.252;2023-11-21T01:15:01;6.90;99.90
3186;DHT22;1604;53.700;10.252;2023-11-21T01:18:04;6.90;99.90
3186;DHT22;1604;53.700;10.252;2023-11-21T01:21:06;6.90;99.90
3186;DHT22;1604;53.700;10.252;2023-11-21T01:24:11;6.80;99.90
3186;DHT22;1604;53.700;10.252;2023-11-21T01:27:12;6.80;99.90
3186;DHT22;1604;53.700;10.252;2023-11-21T01:30:14;6.80;99.90
3186;DHT22;1604;53.700;10.252;2023-11-21T01:33:16;6.80;99.90
3186;DHT22;1604;53.700;10.252;2023-11-21T01:36:19;6.70;99.90
3186;DHT22;1604;53.700;10.252;2023-11-21T01:39:22;6.70;99.90
3186;DHT22;1604;53.700;10.252;2023-11-21T01:42:25;6.70;99.90
3186;DHT22;1604;53.700;10.252;2023-11-21T01:45:29;6.70;99.90
3186;DHT22;1604;53.700;10.252;2023-11-21T01:48:34;6.60;99.90
3186;DHT22;1604;53.700;10.252;2023-11-21T01:51:36;6.60;99.90
3186;DHT22;1604;53.700;10.252;2023-11-21T01:54:41;6.60;99.90
3186;DHT22;1604;53.700;10.252;2023-11-21T01:57:43;6.60;99.90
3186;DHT22;1604;53.700;10.252;2023-11-21T02:00:45;6.60;99.90
3186;DHT22;1604;53.700;10.252;2023-11-21T02:03:47;6.60;99.90
3186;DHT22;1604;53.700;10.252;2023-11-21T02:06:49;6.60;99.90
3186;DHT22;1604;53.700;10.252;2023-11-21T02:09:52;6.60;99.90
3186;DHT22;1604;53.700;10.252;2023-11-21T02:12:54;6.50;99.90
3186;DHT22;1604;53.700;10.252;2023-11-21T02:15:57;6.50;99.90
3186;DHT22;1604;53.700;10.252;2023-11-21T02:18:59;6.50;99.90
3186;DHT22;1604;53.700;10.252;2023-11-21T02:22:02;6.40;99.90
3186;DHT22;1604;53.700;10.252;2023-11-21T02:25:08;6.40;99.90
3186;DHT22;1604;53.700;10.252;2023-11-21T02:28:10;6.40;99.90
3186;DHT22;1604;53.700;10.252;2023-11-21T02:31:13;6.40;99.90
3186;DHT22;1604;53.700;10.252;2023-11-21T02:34:15;6.30;99.90
3186;DHT22;1604;53.700;10.252;2023-11-21T02:37:17;6.30;99.90
3186;DHT22;1604;53.700;10.252;2023-11-21T02:40:21;6.30;99.90
3186;DHT22;1604;53.700;10.252;2023-11-21T02:43:25;6.30;99.90
3186;DHT22;1604;53.700;10.252;2023-11-21T02:46:27;6.30;99.90
3186;DHT22;1604;53.700;10.252;2023-11-21T02:49:29;6.30;99.90
3186;DHT22;1604;53.700;10.252;2023-11-21T02:52:31;6.30;99.90
3186;DHT22;1604;53.700;10.252;2023-11-21T02:55:35;6.20;99.90
3186;DHT22;1604;53.700;10.252;2023-11-21T02:58:37;6.20;99.90
3186;DHT22;1604;53.700;10.252;2023-11-21T03:01:39;6.20;99.90
3186;DHT22;1604;53.700;10.252;2023-11-21T03:04:41;6.20;99.90
3186;DHT22;1604;53.700;10.252;2023-11-21T03:07:43;6.20;99.90
3186;DHT22;1604;53.700;10.252;2023-11-21T03:10:50;6.20;99.90
3186;DHT22;1604;53.700;10.252;2023-11-21T03:13:52;6.20;99.90
3186;DHT22;1604;53.700;10.252;2023-11-21T03:16:54;6.10;99.90
3186;DHT22;1604;53.700;10.252;2023-11-21T03:19:57;6.10;99.90
3186;DHT22;1604;53.700;10.252;2023-11-21T03:22:58;6.10;99.90
3186;DHT22;1604;53.700;10.252;2023-11-21T03:26:02;6.00;99.90
3186;DHT22;1604;53.700;10.252;2023-11-21T03:29:04;6.00;99.90
3186;DHT22;1604;53.700;10.252;2023-11-21T03:32:07;6.00;99.90
3186;DHT22;1604;53.700;10.252;2023-11-21T03:35:08;6.00;99.90
3186;DHT22;1604;53.700;10.252;2023-11-21T03:38:11;6.00;99.90
3186;DHT22;1604;53.700;10.252;2023-11-21T03:41:14;6.00;99.90
3186;DHT22;1604;53.700;10.252;2023-11-21T03:44:16;6.00;99.90
3186;DHT22;1604;53.700;10.252;2023-11-21T03:47:18;6.00;99.90
3186;DHT22;1604;53.700;10.252;2023-11-21T03:50:20;6.00;99.90
3186;DHT22;1604;53.700;10.252;2023-11-21T03:53:22;6.00;99.90
3186;DHT22;1604;53.700;10.252;2023-11-21T03:56:26;6.00;99.90
3186;DHT22;1604;53.700;10.252;2023-11-21T03:59:28;6.00;99.90
3186;DHT22;1604;53.700;10.252;2023-11-21T04:02:30;6.00;99.90
3186;DHT22;1604;53.700;10.252;2023-11-21T04:05:32;6.00;99.90
3186;DHT22;1604;53.700;10.252;2023-11-21T04:08:34;6.00;99.90
3186;DHT22;1604;53.700;10.252;2023-11-21T04:11:37;6.10;99.90
3186;DHT22;1604;53.700;10.252;2023-11-21T04:14:39;6.00;99.90
3186;DHT22;1604;53.700;10.252;2023-11-21T04:17:41;6.10;99.90
3186;DHT22;1604;53.700;10.252;2023-11-21T04:20:43;6.10;99.90
3186;DHT22;1604;53.700;10.252;2023-11-21T04:23:45;6.10;99.90
3186;DHT22;1604;53.700;10.252;2023-11-21T04:26:48;6.10;99.90
3186;DHT22;1604;53.700;10.252;2023-11-21T04:29:50;6.10;99.90
3186;DHT22;1604;53.700;10.252;2023-11-21T04:32:52;6.10;99.90
3186;DHT22;1604;53.700;10.252;2023-11-21T04:35:54;6.10;99.90
3186;DHT22;1604;53.700;10.252;2023-11-21T04:38:56;6.10;99.90
3186;DHT22;1604;53.700;10.252;2023-11-21T04:42:00;6.10;99.90
3186;DHT22;1604;53.700;10.252;2023-11-21T04:45:02;6.10;99.90
3186;DHT22;1604;53.700;10.252;2023-11-21T04:48:08;6.10;99.90
3186;DHT22;1604;53.700;10.252;2023-11-21T04:51:10;6.10;99.90
3186;DHT22;1604;53.700;10.252;2023-11-21T04:54:13;6.10;99.90
3186;DHT22;1604;53.700;10.252;2023-11-21T04:57:16;6.10;99.90
3186;DHT22;1604;53.700;10.252;2023-11-21T05:00:19;6.10;99.90
3186;DHT22;1604;53.700;10.252;2023-11-21T05:03:21;6.10;99.90
3186;DHT22;1604;53.700;10.252;2023-11-21T05:06:24;6.10;99.90
3186;DHT22;1604;53.700;10.252;2023-11-21T05:09:26;6.10;99.90
3186;DHT22;1604;53.700;10.252;2023-11-21T05:12:33;6.10;99.90
3186;DHT22;1604;53.700;10.252;2023-11-21T05:15:37;6.10;99.90
3186;DHT22;1604;53.700;10.252;2023-11-21T05:18:39;6.10;99.90
3186;DHT22;1604;53.700;10.252;2023-11-21T05:21:41;6.10;99.90
3186;DHT22;1604;53.700;10.252;2023-11-21T05:24:43;6.10;99.90
3186;DHT22;1604;53.700;10.252;2023-11-21T05:27:46;6.10;99.90
3186;DHT22;1604;53.700;10.252;2023-11-21T05:30:48;6.10;99.90
3186;DHT22;1604;53.700;10.252;2023-11-21T05:33:50;6.10;99.90
3186;DHT22;1604;53.700;10.252;2023-11-21T05:36:53;6.10;99.90
3186;DHT22;1604;53.700;10.252;2023-11-21T05:39:55;6.10;99.90
3186;DHT22;1604;53.700;10.252;2023-11-21T05:42:59;6.10;99.90
3186;DHT22;1604;53.700;10.252;2023-11-21T05:46:01;6.10;99.90
3186;DHT22;1604;53.700;10.252;2023-11-21T05:49:03;6.10;99.90
3186;DHT22;1604;53.700;10.252;2023-11-21T05:52:05;6.10;99.90
3186;DHT22;1604;53.700;10.252;2023-11-21T05:55:07;6.10;99.90
3186;DHT22;1604;53.700;10.252;2023-11-21T05:58:11;6.10;99.90
3186;DHT22;1604;53.700;10.252;2023-11-21T06:01:14;6.10;99.90
3186;DHT22;1604;53.700;10.252;2023-11-21T06:04:16;6.00;99.90
3186;DHT22;1604;53.700;10.252;2023-11-21T06:07:19;6.00;99.90
3186;DHT22;1604;53.700;10.252;2023-11-21T06:10:22;6.00;99.90
3186;DHT22;1604;53.700;10.252;2023-11-21T06:13:25;6.00;99.90
3186;DHT22;1604;53.700;10.252;2023-11-21T06:16:28;6.00;99.90
3186;DHT22;1604;53.700;10.252;2023-11-21T06:19:30;6.00;99.90
3186;DHT22;1604;53.700;10.252;2023-11-21T06:22:32;6.00;99.90
3186;DHT22;1604;53.700;10.252;2023-11-21T06:25:33;6.00;99.90
3186;DHT22;1604;53.700;10.252;2023-11-21T06:28:38;6.00;99.90
3186;DHT22;1604;53.700;10.252;2023-11-21T06:31:40;6.00;99.90
3186;DHT22;1604;53.700;10.252;2023-11-21T06:34:42;6.00;99.90
3186;DHT22;1604;53.700;10.252;2023-11-21T06:37:44;6.00;99.90
3186;DHT22;1604;53.700;10.252;2023-11-21T06:40:48;6.00;99.90
3186;DHT22;1604;53.700;10.252;2023-11-21T06:43:51;6.00;99.90
3186;DHT22;1604;53.700;10.252;2023-11-21T06:46:53;6.00;99.90
3186;DHT22;1604;53.700;10.252;2023-11-21T06:49:55;6.00;99.90
3186;DHT22;1604;53.700;10.252;2023-11-21T06:52:57;6.00;99.90
3186;DHT22;1604;53.700;10.252;2023-11-21T06:55:59;6.00;99.90
3186;DHT22;1604;53.700;10.252;2023-11-21T06:59:02;6.00;99.90
3186;DHT22;1604;53.700;10.252;2023-11-21T07:02:06;6.00;99.90
3186;DHT22;1604;53.700;10.252;2023-11-21T07:05:08;6.10;99.90
3186;DHT22;1604;53.700;10.252;2023-11-21T07:08:10;6.00;99.90
3186;DHT22;1604;53.700;10.252;2023-11-21T07:11:13;6.00;99.90
3186;DHT22;1604;53.700;10.252;2023-11-21T07:14:16;6.10;99.90
3186;DHT22;1604;53.700;10.252;2023-11-21T07:17:19;6.00;99.90
3186;DHT22;1604;53.700;10.252;2023-11-21T07:20:23;6.10;99.90
3186;DHT22;1604;53.700;10.252;2023-11-21T07:23:25;6.10;99.90
3186;DHT22;1604;53.700;10.252;2023-11-21T07:26:27;6.10;99.90
3186;DHT22;1604;53.700;10.252;2023-11-21T07:29:31;6.10;99.90
3186;DHT22;1604;53.700;10.252;2023-11-21T07:32:33;6.10;99.90
3186;DHT22;1604;53.700;10.252;2023-11-21T07:35:35;6.10;99.90
3186;DHT22;1604;53.700;10.252;2023-11-21T07:38:37;6.10;99.90
3186;DHT22;1604;53.700;10.252;2023-11-21T07:41:39;6.10;99.90
3186;DHT22;1604;53.700;10.252;2023-11-21T07:44:47;6.10;99.90
3186;DHT22;1604;53.700;10.252;2023-11-21T07:47:48;6.10;99.90
3186;DHT22;1604;53.700;10.252;2023-11-21T07:50:50;6.20;99.90
3186;DHT22;1604;53.700;10.252;2023-11-21T07:53:52;6.20;99.90
3186;DHT22;1604;53.700;10.252;2023-11-21T07:56:55;6.20;99.90
3186;DHT22;1604;53.700;10.252;2023-11-21T07:59:58;6.10;99.90
3186;DHT22;1604;53.700;10.252;2023-11-21T08:03:01;6.20;99.90
3186;DHT22;1604;53.700;10.252;2023-11-21T08:06:03;6.20;99.90
3186;DHT22;1604;53.700;10.252;2023-11-21T08:09:06;6.20;99.90
3186;DHT22;1604;53.700;10.252;2023-11-21T08:12:08;6.20;99.90
3186;DHT22;1604;53.700;10.252;2023-11-21T08:15:13;6.20;99.90
3186;DHT22;1604;53.700;10.252;2023-11-21T08:18:14;6.20;99.90
3186;DHT22;1604;53.700;10.252;2023-11-21T08:21:21;6.30;99.90
3186;DHT22;1604;53.700;10.252;2023-11-21T08:24:25;6.30;99.90
3186;DHT22;1604;53.700;10.252;2023-11-21T08:27:28;6.30;99.90
3186;DHT22;1604;53.700;10.252;2023-11-21T08:30:32;6.30;99.90
3186;DHT22;1604;53.700;10.252;2023-11-21T08:33:35;6.30;99.90
3186;DHT22;1604;53.700;10.252;2023-11-21T08:36:42;6.20;99.90
3186;DHT22;1604;53.700;10.252;2023-11-21T08:39:47;6.20;99.90
3186;DHT22;1604;53.700;10.252;2023-11-21T08:42:55;6.20;99.90
3186;DHT22;1604;53.700;10.252;2023-11-21T08:46:00;6.20;99.90
3186;DHT22;1604;53.700;10.252;2023-11-21T08:49:03;6.20;99.90
3186;DHT22;1604;53.700;10.252;2023-11-21T08:52:06;6.20;99.90
3186;DHT22;1604;53.700;10.252;2023-11-21T08:55:08;6.20;99.90
3186;DHT22;1604;53.700;10.252;2023-11-21T08:58:12;6.20;99.90
3186;DHT22;1604;53.700;10.252;2023-11-21T09:01:16;6.20;99.90
3186;DHT22;1604;53.700;10.252;2023-11-21T09:04:18;6.20;99.90
3186;DHT22;1604;53.700;10.252;2023-11-21T09:07:20;6.20;99.90
3186;DHT22;1604;53.700;10.252;2023-11-21T09:10:22;6.30;99.90
3186;DHT22;1604;53.700;10.252;2023-11-21T09:13:25;6.30;99.90
3186;DHT22;1604;53.700;10.252;2023-11-21T09:16:29;6.30;99.90
3186;DHT22;1604;53.700;10.252;2023-11-21T09:19:32;6.30;99.90
3186;DHT22;1604;53.700;10.252;2023-11-21T09:22:34;6.30;99.90
3186;DHT22;1604;53.700;10.252;2023-11-21T09:25:36;6.40;99.90
3186;DHT22;1604;53.700;10.252;2023-11-21T09:28:38;6.40;99.90
3186;DHT22;1604;53.700;10.252;2023-11-21T09:31:41;6.40;99.90
3186;DHT22;1604;53.700;10.252;2023-11-21T09:34:44;6.40;99.90
3186;DHT22;1604;53.700;10.252;2023-11-21T09:37:46;6.40;99.90
3186;DHT22;1604;53.700;10.252;2023-11-21T09:40:48;6.40;99.90
3186;DHT22;1604;53.700;10.252;2023-11-21T09:43:54;6.40;99.90
3186;DHT22;1604;53.700;10.252;2023-11-21T09:47:02;6.40;99.90
3186;DHT22;1604;53.700;10.252;2023-11-21T09:50:06;6.40;99.90
3186;DHT22;1604;53.700;10.252;2023-11-21T09:53:13;6.40;99.90
3186;DHT22;1604;53.700;10.252;2023-11-21T09:56:16;6.40;99.90
3186;DHT22;1604;53.700;10.252;2023-11-21T09:59:24;6.40;99.90
3186;DHT22;1604;53.700;10.252;2023-11-21T10:02:28;6.40;99.90
3186;DHT22;1604;53.700;10.252;2023-11-21T10:05:31;6.40;99.90
3186;DHT22;1604;53.700;10.252;2023-11-21T10:08:35;6.30;99.90
3186;DHT22;1604;53.700;10.252;2023-11-21T10:11:40;6.30;99.90
3186;DHT22;1604;53.700;10.252;2023-11-21T10:14:43;6.40;99.90
3186;DHT22;1604;53.700;10.252;2023-11-21T10:17:48;6.40;99.90
3186;DHT22;1604;53.700;10.252;2023-11-21T10:20:50;6.40;99.90
3186;DHT22;1604;53.700;10.252;2023-11-21T10:23:53;6.40;99.90
3186;DHT22;1604;53.700;10.252;2023-11-21T10:26:56;6.50;99.90
3186;DHT22;1604;53.700;10.252;2023-11-21T10:29:58;6.50;99.90
3186;DHT22;1604;53.700;10.252;2023-11-21T10:33:04;6.50;99.90
3186;DHT22;1604;53.700;10.252;2023-11-21T10:36:07;6.60;99.90
3186;DHT22;1604;53.700;10.252;2023-11-21T10:39:09;6.60;99.90
3186;DHT22;1604;53.700;10.252;2023-11-21T10:42:11;6.60;99.90
3186;DHT22;1604;53.700;10.252;2023-11-21T10:45:13;6.60;99.90
3186;DHT22;1604;53.700;10.252;2023-11-21T10:48:16;6.60;99.90
3186;DHT22;1604;53.700;10.252;2023-11-21T10:51:18;6.60;99.90
3186;DHT22;1604;53.700;10.252;2023-11-21T10:54:24;6.50;99.90
3186;DHT22;1604;53.700;10.252;2023-11-21T10:57:26;6.50;99.90
3186;DHT22;1604;53.700;10.252;2023-11-21T11:00:29;6.50;99.90
3186;DHT22;1604;53.700;10.252;2023-11-21T11:03:32;6.50;99.90
3186;DHT22;1604;53.700;10.252;2023-11-21T11:06:38;6.50;99.90
3186;DHT22;1604;53.700;10.252;2023-11-21T11:09:40;6.50;99.90
3186;DHT22;1604;53.700;10.252;2023-11-21T11:12:42;6.50;99.90
3186;DHT22;1604;53.700;10.252;2023-11-21T11:15:47;6.50;99.90
3186;DHT22;1604;53.700;10.252;2023-11-21T11:18:51;6.50;99.90
3186;DHT22;1604;53.700;10.252;2023-11-21T11:22:00;6.50;99.90
3186;DHT22;1604;53.700;10.252;2023-11-21T11:25:21;6.50;99.90
3186;DHT22;1604;53.700;10.252;2023-11-21T11:28:32;6.50;99.90
3186;DHT22;1604;53.700;10.252;2023-11-21T11:31:46;6.50;99.90
3186;DHT22;1604;53.700;10.252;2023-11-21T11:34:57;6.50;99.90
3186;DHT22;1604;53.700;10.252;2023-11-21T11:38:03;6.50;99.90
3186;DHT22;1604;53.700;10.252;2023-11-21T11:41:06;6.50;99.90
3186;DHT22;1604;53.700;10.252;2023-11-21T11:47:57;6.50;99.90
3186;DHT22;1604;53.700;10.252;2023-11-21T11:51:04;6.40;99.90
3186;DHT22;1604;53.700;10.252;2023-11-21T11:54:09;6.50;99.90
3186;DHT22;1604;53.700;10.252;2023-11-21T11:57:12;6.50;99.90
3186;DHT22;1604;53.700;10.252;2023-11-21T12:00:16;6.50;99.90
3186;DHT22;1604;53.700;10.252;2023-11-21T12:03:20;6.50;99.90
3186;DHT22;1604;53.700;10.252;2023-11-21T12:06:33;6.40;99.90
3186;DHT22;1604;53.700;10.252;2023-11-21T12:09:37;6.40;99.90
3186;DHT22;1604;53.700;10.252;2023-11-21T12:12:42;6.50;99.90
3186;DHT22;1604;53.700;10.252;2023-11-21T12:15:44;6.50;99.90
3186;DHT22;1604;53.700;10.252;2023-11-21T12:18:46;6.40;99.90
3186;DHT22;1604;53.700;10.252;2023-11-21T12:21:50;6.40;99.90
3186;DHT22;1604;53.700;10.252;2023-11-21T12:24:52;6.40;99.90
3186;DHT22;1604;53.700;10.252;2023-11-21T12:27:55;6.40;99.90
3186;DHT22;1604;53.700;10.252;2023-11-21T12:30:57;6.40;99.90
3186;DHT22;1604;53.700;10.252;2023-11-21T12:34:00;6.40;99.90
3186;DHT22;1604;53.700;10.252;2023-11-21T12:37:03;6.40;99.90
3186;DHT22;1604;53.700;10.252;2023-11-21T12:40:06;6.40;99.90
3186;DHT22;1604;53.700;10.252;2023-11-21T12:43:12;6.40;99.90
3186;DHT22;1604;53.700;10.252;2023-11-21T12:46:15;6.40;99.90
3186;DHT22;1604;53.700;10.252;2023-11-21T12:49:17;6.30;99.90
3186;DHT22;1604;53.700;10.252;2023-11-21T12:52:21;6.40;99.90
3186;DHT22;1604;53.700;10.252;2023-11-21T12:55:23;6.30;99.90
3186;DHT22;1604;53.700;10.252;2023-11-21T12:58:26;6.30;99.90
3186;DHT22;1604;53.700;10.252;2023-11-21T13:01:29;6.30;99.90
3186;DHT22;1604;53.700;10.252;2023-11-21T13:04:33;6.30;99.90
3186;DHT22;1604;53.700;10.252;2023-11-21T13:07:42;6.20;99.90
3186;DHT22;1604;53.700;10.252;2023-11-21T13:10:49;6.10;99.90
3186;DHT22;1604;53.700;10.252;2023-11-21T13:13:52;6.10;99.90
3186;DHT22;1604;53.700;10.252;2023-11-21T13:16:55;6.10;99.90
3186;DHT22;1604;53.700;10.252;2023-11-21T13:19:57;6.10;99.90
3186;DHT22;1604;53.700;10.252;2023-11-21T13:23:07;6.10;99.90
3186;DHT22;1604;53.700;10.252;2023-11-21T13:26:12;6.10;99.90
3186;DHT22;1604;53.700;10.252;2023-11-21T13:29:15;6.10;99.90
3186;DHT22;1604;53.700;10.252;2023-11-21T13:32:17;6.10;99.90
3186;DHT22;1604;53.700;10.252;2023-11-21T13:35:21;6.00;99.90
3186;DHT22;1604;53.700;10.252;2023-11-21T13:38:33;6.00;99.90
3186;DHT22;1604;53.700;10.252;2023-11-21T13:41:36;6.00;99.90
3186;DHT22;1604;53.700;10.252;2023-11-21T13:44:38;6.00;99.90
3186;DHT22;1604;53.700;10.252;2023-11-21T13:47:44;6.10;99.90
3186;DHT22;1604;53.700;10.252;2023-11-21T13:50:46;6.00;99.90
3186;DHT22;1604;53.700;10.252;2023-11-21T13:53:57;5.90;99.90
3186;DHT22;1604;53.700;10.252;2023-11-21T13:56:59;5.90;99.90
3186;DHT22;1604;53.700;10.252;2023-11-21T14:00:04;5.90;99.90
3186;DHT22;1604;53.700;10.252;2023-11-21T14:03:11;5.80;99.90
3186;DHT22;1604;53.700;10.252;2023-11-21T14:06:21;5.80;99.90
3186;DHT22;1604;53.700;10.252;2023-11-21T14:09:29;5.70;99.90
3186;DHT22;1604;53.700;10.252;2023-11-21T14:12:36;5.60;99.90
3186;DHT22;1604;53.700;10.252;2023-11-21T14:15:41;5.50;99.90
3186;DHT22;1604;53.700;10.252;2023-11-21T14:18:45;5.50;99.90
3186;DHT22;1604;53.700;10.252;2023-11-21T14:21:56;5.50;99.90
3186;DHT22;1604;53.700;10.252;2023-11-21T14:24:59;5.40;99.90
3186;DHT22;1604;53.700;10.252;2023-11-21T14:28:04;5.40;99.90
3186;DHT22;1604;53.700;10.252;2023-11-21T14:31:06;5.40;99.90
3186;DHT22;1604;53.700;10.252;2023-11-21T14:34:10;5.40;99.90
3186;DHT22;1604;53.700;10.252;2023-11-21T14:37:13;5.30;99.90
3186;DHT22;1604;53.700;10.252;2023-11-21T14:40:16;5.30;99.90
3186;DHT22;1604;53.700;10.252;2023-11-21T14:43:22;5.30;99.90
3186;DHT22;1604;53.700;10.252;2023-11-21T14:46:24;5.30;99.90
3186;DHT22;1604;53.700;10.252;2023-11-21T14:49:26;5.30;99.90
3186;DHT22;1604;53.700;10.252;2023-11-21T14:52:37;5.30;99.90
3186;DHT22;1604;53.700;10.252;2023-11-21T14:55:55;5.30;99.90
3186;DHT22;1604;53.700;10.252;2023-11-21T14:59:00;5.30;99.90
3186;DHT22;1604;53.700;10.252;2023-11-21T15:02:09;5.30;99.90
3186;DHT22;1604;53.700;10.252;2023-11-21T15:05:15;5.20;99.90
3186;DHT22;1604;53.700;10.252;2023-11-21T15:08:19;5.20;99.90
3186;DHT22;1604;53.700;10.252;2023-11-21T15:11:28;5.20;99.90
3186;DHT22;1604;53.700;10.252;2023-11-21T15:14:31;5.10;99.90
3186;DHT22;1604;53.700;10.252;2023-11-21T15:17:35;5.10;99.90
3186;DHT22;1604;53.700;10.252;2023-11-21T15:20:37;5.00;99.90
3186;DHT22;1604;53.700;10.252;2023-11-21T15:23:39;5.00;99.90
3186;DHT22;1604;53.700;10.252;2023-11-21T15:26:43;5.00;99.90
3186;DHT22;1604;53.700;10.252;2023-11-21T15:29:46;5.00;99.90
3186;DHT22;1604;53.700;10.252;2023-11-21T15:32:48;5.00;99.90
3186;DHT22;1604;53.700;10.252;2023-11-21T15:35:49;4.90;99.90
3186;DHT22;1604;53.700;10.252;2023-11-21T15:38:51;4.90;99.90
3186;DHT22;1604;53.700;10.252;2023-11-21T15:41:56;4.90;99.90
3186;DHT22;1604;53.700;10.252;2023-11-21T15:44:58;4.90;99.90
3186;DHT22;1604;53.700;10.252;2023-11-21T15:47:59;4.90;99.90
3186;DHT22;1604;53.700;10.252;2023-11-21T15:51:02;4.90;99.90
3186;DHT22;1604;53.700;10.252;2023-11-21T15:54:05;4.90;99.90
3186;DHT22;1604;53.700;10.252;2023-11-21T15:57:09;4.90;99.90
3186;DHT22;1604;53.700;10.252;2023-11-21T16:00:12;4.90;99.90
3186;DHT22;1604;53.700;10.252;2023-11-21T16:03:19;4.80;99.90
3186;DHT22;1604;53.700;10.252;2023-11-21T16:06:22;4.80;99.90
3186;DHT22;1604;53.700;10.252;2023-11-21T16:09:24;4.80;99.90
3186;DHT22;1604;53.700;10.252;2023-11-21T16:12:32;4.80;99.90
3186;DHT22;1604;53.700;10.252;2023-11-21T16:15:34;4.80;99.90
3186;DHT22;1604;53.700;10.252;2023-11-21T16:18:36;4.80;99.90
3186;DHT22;1604;53.700;10.252;2023-11-21T16:21:38;4.80;99.90
3186;DHT22;1604;53.700;10.252;2023-11-21T16:24:40;4.80;99.90
3186;DHT22;1604;53.700;10.252;2023-11-21T16:27:43;4.80;99.90
3186;DHT22;1604;53.700;10.252;2023-11-21T16:30:45;4.80;99.90
3186;DHT22;1604;53.700;10.252;2023-11-21T16:33:47;4.80;99.90
3186;DHT22;1604;53.700;10.252;2023-11-21T16:36:49;4.80;99.90
3186;DHT22;1604;53.700;10.252;2023-11-21T16:39:51;4.90;99.90
3186;DHT22;1604;53.700;10.252;2023-11-21T16:42:55;4.90;99.90
3186;DHT22;1604;53.700;10.252;2023-11-21T16:45:58;4.90;99.90
3186;DHT22;1604;53.700;10.252;2023-11-21T16:48:59;4.80;99.90
3186;DHT22;1604;53.700;10.252;2023-11-21T16:52:02;4.70;99.90
3186;DHT22;1604;53.700;10.252;2023-11-21T16:55:05;4.60;99.90
3186;DHT22;1604;53.700;10.252;2023-11-21T16:58:11;4.50;99.90
3186;DHT22;1604;53.700;10.252;2023-11-21T17:01:13;4.40;99.90
3186;DHT22;1604;53.700;10.252;2023-11-21T17:04:15;4.40;99.90
3186;DHT22;1604;53.700;10.252;2023-11-21T17:07:19;4.40;99.90
3186;DHT22;1604;53.700;10.252;2023-11-21T17:10:22;4.30;99.90
3186;DHT22;1604;53.700;10.252;2023-11-21T17:13:25;4.20;99.90
3186;DHT22;1604;53.700;10.252;2023-11-21T17:16:28;4.20;99.90
3186;DHT22;1604;53.700;10.252;2023-11-21T17:19:30;4.20;99.90
3186;DHT22;1604;53.700;10.252;2023-11-21T17:22:34;4.20;99.90
3186;DHT22;1604;53.700;10.252;2023-11-21T17:25:36;4.20;99.90
3186;DHT22;1604;53.700;10.252;2023-11-21T17:28:40;4.20;99.90
3186;DHT22;1604;53.700;10.252;2023-11-21T17:31:43;4.10;99.90
3186;DHT22;1604;53.700;10.252;2023-11-21T17:34:45;4.10;99.90
3186;DHT22;1604;53.700;10.252;2023-11-21T17:37:48;4.10;99.90
3186;DHT22;1604;53.700;10.252;2023-11-21T17:40:50;4.10;99.90
3186;DHT22;1604;53.700;10.252;2023-11-21T17:43:54;4.10;99.90
3186;DHT22;1604;53.700;10.252;2023-11-21T17:46:56;4.10;99.90
3186;DHT22;1604;53.700;10.252;2023-11-21T17:49:58;4.00;99.90
3186;DHT22;1604;53.700;10.252;2023-11-21T17:53:00;4.00;99.90
3186;DHT22;1604;53.700;10.252;2023-11-21T17:56:02;4.00;99.90
3186;DHT22;1604;53.700;10.252;2023-11-21T17:59:06;4.00;99.90
3186;DHT22;1604;53.700;10.252;2023-11-21T18:02:08;4.10;99.90
3186;DHT22;1604;53.700;10.252;2023-11-21T18:05:10;4.10;99.90
3186;DHT22;1604;53.700;10.252;2023-11-21T18:08:14;4.00;99.90
3186;DHT22;1604;53.700;10.252;2023-11-21T18:11:16;4.10;99.90
3186;DHT22;1604;53.700;10.252;2023-11-21T18:14:19;4.10;99.90
3186;DHT22;1604;53.700;10.252;2023-11-21T18:17:21;4.00;99.90
3186;DHT22;1604;53.700;10.252;2023-11-21T18:20:23;4.00;99.90
3186;DHT22;1604;53.700;10.252;2023-11-21T18:23:25;4.00;99.90
3186;DHT22;1604;53.700;10.252;2023-11-21T18:26:27;4.00;99.90
3186;DHT22;1604;53.700;10.252;2023-11-21T18:29:31;4.00;99.90
3186;DHT22;1604;53.700;10.252;2023-11-21T18:32:33;3.90;99.90
3186;DHT22;1604;53.700;10.252;2023-11-21T18:35:35;3.90;99.90
3186;DHT22;1604;53.700;10.252;2023-11-21T18:38:38;3.90;99.90
3186;DHT22;1604;53.700;10.252;2023-11-21T18:41:40;3.90;99.90
3186;DHT22;1604;53.700;10.252;2023-11-21T18:44:44;3.90;99.90
3186;DHT22;1604;53.700;10.252;2023-11-21T18:47:47;3.90;99.90
3186;DHT22;1604;53.700;10.252;2023-11-21T18:50:49;3.90;99.90
3186;DHT22;1604;53.700;10.252;2023-11-21T18:53:55;3.90;99.90
3186;DHT22;1604;53.700;10.252;2023-11-21T18:56:57;3.80;99.90
3186;DHT22;1604;53.700;10.252;2023-11-21T19:00:00;3.80;99.90
3186;DHT22;1604;53.700;10.252;2023-11-21T19:03:04;3.80;99.90
3186;DHT22;1604;53.700;10.252;2023-11-21T19:06:06;3.80;99.90
3186;DHT22;1604;53.700;10.252;2023-11-21T19:09:09;3.80;99.90
3186;DHT22;1604;53.700;10.252;2023-11-21T19:12:12;3.80;99.90
3186;DHT22;1604;53.700;10.252;2023-11-21T19:15:16;3.80;99.90
3186;DHT22;1604;53.700;10.252;2023-11-21T19:18:19;3.80;99.90
3186;DHT22;1604;53.700;10.252;2023-11-21T19:21:21;3.80;99.90
3186;DHT22;1604;53.700;10.252;2023-11-21T19:24:23;3.70;99.90
3186;DHT22;1604;53.700;10.252;2023-11-21T19:27:25;3.70;99.90
3186;DHT22;1604;53.700;10.252;2023-11-21T19:30:28;3.70;99.90
3186;DHT22;1604;53.700;10.252;2023-11-21T19:33:33;3.80;99.90
3186;DHT22;1604;53.700;10.252;2023-11-21T19:36:39;3.80;99.90
3186;DHT22;1604;53.700;10.252;2023-11-21T19:39:41;3.80;99.90
3186;DHT22;1604;53.700;10.252;2023-11-21T19:42:44;3.90;99.90
3186;DHT22;1604;53.700;10.252;2023-11-21T19:45:47;3.80;99.90
3186;DHT22;1604;53.700;10.252;2023-11-21T19:48:49;3.60;99.90
3186;DHT22;1604;53.700;10.252;2023-11-21T19:51:53;3.60;99.90
3186;DHT22;1604;53.700;10.252;2023-11-21T19:54:55;3.50;99.90
3186;DHT22;1604;53.700;10.252;2023-11-21T19:57:57;3.40;99.90
3186;DHT22;1604;53.700;10.252;2023-11-21T20:01:02;3.40;99.90